Time;durP1;ratioP1;P1;durP2;ratioP2;P2;SDS_P1;SDS_P2;PMS_P1;PMS_P2;Temp;Humidity;BMP_temperature;BMP_pressure;BME280_temperature;BME280_humidity;BME280_pressure;Samples;Min_cycle;Max_cycle;Signal;HPM_P1;HPM_P2
2021/03/12 00:01:47;;;;;;;;;;;;;;;0.90;100.00;92522.38;1499217;39;20264;31
2021/03/12 00:02:51;;;;;;;;;;;;;;;0.91;100.00;92521.22;1421508;39;20226;31
2021/03/12 00:06:03;;;;;;;;;;;;;;;0.99;100.00;92512.25;1431251;39;20365;31
2021/03/12 00:07:07;;;;;;;;;;;;;;;1.07;100.00;92513.03;1439880;39;20299;31
2021/03/12 00:08:20;;;;;;;;;;;;;;;1.10;100.00;92517.56;1423898;39;20636;31
2021/03/12 00:09:34;;;;;;;;;;;;;;;1.10;100.00;92522.06;1380901;39;20203;31
2021/03/12 00:10:48;;;;;;;;;;;;;;;1.12;100.00;92527.72;1394360;39;20191;31
2021/03/12 00:12:55;;;;;;;;;;;;;;;1.10;100.00;92524.69;1422273;39;20222;31
2021/03/12 00:13:59;;;;;;;;;;;;;;;1.14;100.00;92526.25;1369824;39;20245;31
2021/03/12 00:15:05;;;;;;;;;;;;;;;1.20;100.00;92521.38;1326148;39;20476;31
2021/03/12 00:16:09;;;;;;;;;;;;;;;1.30;100.00;92528.53;1435702;39;20992;31
2021/03/12 00:17:26;;;;;;;;;;;;;;;1.39;100.00;92525.56;437316;39;20529;-83
2021/03/12 00:18:37;;;;;;;;;;;;;;;1.36;100.00;92532.34;1425504;39;20233;31
2021/03/12 00:22:01;;;;;;;;;;;;;;;1.41;100.00;92539.87;1109676;39;20170;31
2021/03/12 00:23:05;;;;;;;;;;;;;;;1.39;100.00;92551.88;1422773;39;20227;31
2021/03/12 00:24:09;;;;;;;;;;;;;;;1.42;100.00;92536.09;1256145;39;20334;31
2021/03/12 00:27:29;;;;;;;;;;;;;;;1.51;100.00;92548.91;1172279;39;20190;-84
2021/03/12 00:28:43;;;;;;;;;;;;;;;1.65;97.09;92559.47;1091442;39;20326;31
2021/03/12 00:29:47;;;;;;;;;;;;;;;1.64;98.23;92551.97;1177899;39;20328;31
2021/03/12 00:31:54;;;;;;;;;;;;;;;1.57;100.00;92539.53;1132447;39;20231;31
2021/03/12 00:32:56;;;;;;;;;;;;;;;1.52;99.87;92542.53;1168849;39;20241;31
2021/03/12 00:33:56;;;;;;;;;;;;;;;1.48;100.00;92539.13;1049376;49;20285;-87
2021/03/12 00:34:56;;;;;;;;;;;;;;;1.47;100.00;92553.41;1044398;56;20192;-84
2021/03/12 00:36:13;;;;;;;;;;;;;;;1.48;100.00;92554.91;1131489;39;20234;-84
2021/03/12 00:37:27;;;;;;;;;;;;;;;1.57;99.89;92557.19;1335279;39;20230;31
2021/03/12 00:38:29;;;;;;;;;;;;;;;1.55;100.00;92564.75;1378103;39;20206;-84
2021/03/12 00:39:32;;;;;;;;;;;;;;;1.53;100.00;92551.91;1154205;39;20207;-85
2021/03/12 00:40:37;;;;;;;;;;;;;;;1.45;100.00;92545.16;1311537;39;20197;31
2021/03/12 00:41:37;;;;;;;;;;;;;;;1.45;100.00;92550.41;1055043;49;20137;-85
2021/03/12 00:42:37;;;;;;;;;;;;;;;1.58;100.00;92563.97;1048113;56;20113;-84
2021/03/12 00:43:38;;;;;;;;;;;;;;;1.54;100.00;92548.19;1046797;57;21113;-84
2021/03/12 00:44:38;;;;;;;;;;;;;;;1.55;100.00;92551.56;1051477;56;20098;-85
2021/03/12 00:45:40;;;;;;;;;;;;;;;1.57;100.00;92554.56;1051198;56;20721;-85
2021/03/12 00:46:40;;;;;;;;;;;;;;;1.50;100.00;92556.06;1048307;56;20260;-86
2021/03/12 00:47:41;;;;;;;;;;;;;;;1.50;100.00;92553.44;1048439;56;20128;-83
2021/03/12 00:48:41;;;;;;;;;;;;;;;1.54;100.00;92550.81;1050191;56;20167;-83
2021/03/12 00:49:42;;;;;;;;;;;;;;;1.54;100.00;92556.09;1048895;56;20817;-84
2021/03/12 00:50:43;;;;;;;;;;;;;;;1.48;100.00;92555.66;1046194;57;20182;-84
2021/03/12 00:51:43;;;;;;;;;;;;;;;1.57;100.00;92557.97;1045928;56;20722;-82
2021/03/12 00:52:44;;;;;;;;;;;;;;;1.68;100.00;92556.13;1046066;57;20242;-85
2021/03/12 00:53:44;;;;;;;;;;;;;;;1.64;100.00;92544.81;1049751;56;20168;-85
2021/03/12 00:54:44;;;;;;;;;;;;;;;1.72;99.96;92556.88;1050249;56;20832;-85
2021/03/12 00:55:45;;;;;;;;;;;;;;;1.68;99.64;92552.72;1049568;56;20212;-83
2021/03/12 00:56:45;;;;;;;;;;;;;;;1.72;98.63;92551.59;1047991;56;20180;-84
2021/03/12 00:57:45;;;;;;;;;;;;;;;1.71;98.39;92549.34;1051644;56;20211;-86
2021/03/12 00:58:46;;;;;;;;;;;;;;;1.68;100.00;92547.47;1048650;56;20102;-83
2021/03/12 00:59:46;;;;;;;;;;;;;;;1.72;97.51;92546.34;1050455;56;20204;-85
2021/03/12 01:00:46;;;;;;;;;;;;;;;1.72;98.67;92543.72;1050278;56;20115;-81
2021/03/12 01:01:47;;;;;;;;;;;;;;;1.66;100.00;92555.72;1048087;57;20192;-86
2021/03/12 01:02:48;;;;;;;;;;;;;;;1.66;99.82;92544.44;1049210;56;20283;-85
2021/03/12 01:03:48;;;;;;;;;;;;;;;1.55;100.00;92551.56;1051305;56;20233;-85
2021/03/12 01:04:48;;;;;;;;;;;;;;;1.50;100.00;92555.31;1051867;56;20108;-86
2021/03/12 01:05:49;;;;;;;;;;;;;;;1.58;100.00;92538.41;1050131;56;20828;-84
2021/03/12 01:06:49;;;;;;;;;;;;;;;1.61;100.00;92550.06;1051071;56;20249;-88
2021/03/12 01:07:49;;;;;;;;;;;;;;;1.61;100.00;92544.81;1047795;56;20161;-86
2021/03/12 01:08:50;;;;;;;;;;;;;;;1.59;100.00;92539.91;1046506;57;20176;-84
2021/03/12 01:09:50;;;;;;;;;;;;;;;1.62;100.00;92539.16;1046490;57;20149;-85
2021/03/12 01:10:51;;;;;;;;;;;;;;;1.65;100.00;92546.31;1047561;56;20110;-83
2021/03/12 01:11:51;;;;;;;;;;;;;;;1.65;98.63;92548.94;1049805;56;20161;-84
2021/03/12 01:14:09;;;;;;;;;;;;;;;1.63;99.29;92545.19;352735;39;20688;-83
2021/03/12 01:15:11;;;;;;;;;;;;;;;1.57;99.70;92539.53;1055623;48;20196;-83
2021/03/12 01:16:12;;;;;;;;;;;;;;;1.58;98.97;92545.53;1048859;56;20226;-83
2021/03/12 01:17:12;;;;;;;;;;;;;;;1.58;98.60;92542.91;1049255;56;20144;-82
2021/03/12 01:18:13;;;;;;;;;;;;;;;1.54;100.00;92547.41;1044801;57;20595;-83
2021/03/12 01:19:13;;;;;;;;;;;;;;;1.49;100.00;92551.16;1044725;56;20668;-83
2021/03/12 01:20:25;;;;;;;;;;;;;;;1.49;100.00;92549.31;1045435;56;20808;-83
2021/03/12 01:21:25;;;;;;;;;;;;;;;1.51;98.52;92547.03;1048346;56;20176;-83
2021/03/12 01:22:25;;;;;;;;;;;;;;;1.56;99.63;92548.56;1047294;56;20175;-82
2021/03/12 01:23:26;;;;;;;;;;;;;;;1.51;99.39;92549.66;1043055;57;20201;-83
2021/03/12 01:24:26;;;;;;;;;;;;;;;1.55;100.00;92546.31;1047497;56;20688;-83
2021/03/12 01:25:29;;;;;;;;;;;;;;;1.57;99.02;92551.94;1049180;56;20223;-84
2021/03/12 01:26:29;;;;;;;;;;;;;;;1.60;99.97;92546.69;1050522;56;20330;-83
2021/03/12 01:27:38;;;;;;;;;;;;;;;1.58;99.58;92543.69;1051206;56;20306;-82
2021/03/12 01:28:38;;;;;;;;;;;;;;;1.59;99.94;92542.56;1047211;56;20175;-83
2021/03/12 01:29:39;;;;;;;;;;;;;;;1.65;99.69;92548.94;1047219;56;20184;-82
2021/03/12 01:30:43;;;;;;;;;;;;;;;1.66;99.60;92549.69;1046040;57;20212;-83
2021/03/12 01:31:43;;;;;;;;;;;;;;;1.67;99.00;92556.50;1049177;56;20196;-83
2021/03/12 01:32:44;;;;;;;;;;;;;;;1.62;99.77;92562.09;1049566;56;20188;-84
2021/03/12 01:33:44;;;;;;;;;;;;;;;1.61;100.00;92561.34;1047330;56;20231;-85
2021/03/12 01:34:44;;;;;;;;;;;;;;;1.49;100.00;92556.41;1046208;56;20211;-85
2021/03/12 01:35:45;;;;;;;;;;;;;;;1.60;100.00;92567.75;1049595;56;20646;-83
2021/03/12 01:36:45;;;;;;;;;;;;;;;1.53;100.00;92562.47;1048666;56;20215;-84
2021/03/12 01:37:46;;;;;;;;;;;;;;;1.58;100.00;92572.66;1050627;56;20184;-84
2021/03/12 01:38:46;;;;;;;;;;;;;;;1.63;100.00;92574.16;1049498;56;20235;-82
2021/03/12 01:39:46;;;;;;;;;;;;;;;1.51;100.00;92560.19;1049651;56;20180;-82
2021/03/12 01:40:48;;;;;;;;;;;;;;;1.51;100.00;92577.87;1049692;56;20292;-83
2021/03/12 01:41:48;;;;;;;;;;;;;;;1.51;100.00;92577.87;1048069;56;20227;-84
2021/03/12 01:42:49;;;;;;;;;;;;;;;1.46;100.00;92572.97;1050259;56;20807;-82
2021/03/12 01:43:50;;;;;;;;;;;;;;;1.45;100.00;92568.84;1046213;56;20622;-83
2021/03/12 01:44:51;;;;;;;;;;;;;;;1.44;100.00;92578.59;1046221;57;20176;-84
2021/03/12 01:45:51;;;;;;;;;;;;;;;1.36;100.00;92574.47;1051031;56;20179;-83
2021/03/12 01:46:52;;;;;;;;;;;;;;;1.41;100.00;92579.38;1050925;56;20276;-83
2021/03/12 01:47:53;;;;;;;;;;;;;;;1.31;100.00;92576.69;1050537;56;20191;-83
2021/03/12 01:48:53;;;;;;;;;;;;;;;1.31;100.00;92576.69;1049792;56;20223;-84
2021/03/12 01:49:53;;;;;;;;;;;;;;;1.35;100.00;92567.66;1045895;57;20180;-83
2021/03/12 01:50:55;;;;;;;;;;;;;;;1.42;100.00;92574.84;1048627;56;20378;-84
2021/03/12 01:51:56;;;;;;;;;;;;;;;1.35;100.00;92580.81;1050941;56;20200;-83
2021/03/12 01:52:56;;;;;;;;;;;;;;;1.32;100.00;92578.94;1046295;56;20168;-84
2021/03/12 01:53:57;;;;;;;;;;;;;;;1.26;100.00;92562.00;1047401;56;20185;-83
2021/03/12 01:54:58;;;;;;;;;;;;;;;1.33;100.00;92567.28;1049529;56;20160;-84
2021/03/12 01:55:58;;;;;;;;;;;;;;;1.32;100.00;92565.00;1049833;56;20176;-83
2021/03/12 01:56:58;;;;;;;;;;;;;;;1.31;100.00;92566.91;1048533;56;20171;-82
2021/03/12 01:57:59;;;;;;;;;;;;;;;1.30;100.00;92565.38;1050877;56;20228;-84
2021/03/12 01:59:00;;;;;;;;;;;;;;;1.25;100.00;92563.13;1048607;56;20284;-83
2021/03/12 02:00:00;;;;;;;;;;;;;;;1.26;100.00;92560.09;1048218;56;20253;-84
2021/03/12 02:01:00;;;;;;;;;;;;;;;1.32;100.00;92557.91;1050325;56;20684;-84
2021/03/12 02:02:01;;;;;;;;;;;;;;;1.37;100.00;92567.31;1053177;56;20663;-83
2021/03/12 02:03:03;;;;;;;;;;;;;;;1.33;100.00;92545.47;1049441;56;20159;-83
2021/03/12 02:04:03;;;;;;;;;;;;;;;1.32;100.00;92555.25;1048540;56;20176;-83
2021/03/12 02:05:04;;;;;;;;;;;;;;;1.31;100.00;92552.97;1048166;56;20204;-83
2021/03/12 02:06:04;;;;;;;;;;;;;;;1.34;100.00;92560.16;1044361;57;20189;-82
2021/03/12 02:07:05;;;;;;;;;;;;;;;1.40;100.00;92561.28;1044332;57;20224;-82
2021/03/12 02:08:05;;;;;;;;;;;;;;;1.38;100.00;92543.22;1046849;56;20187;-82
2021/03/12 02:09:06;;;;;;;;;;;;;;;1.42;99.29;92545.88;1044447;56;20253;-83
2021/03/12 02:10:09;;;;;;;;;;;;;;;1.35;100.00;92546.59;1044909;56;20716;-83
2021/03/12 02:11:09;;;;;;;;;;;;;;;1.37;100.00;92554.16;1049153;56;20160;-82
2021/03/12 02:12:30;;;;;;;;;;;;;;;1.34;100.00;92554.87;1045109;56;20184;-81
2021/03/12 02:13:33;;;;;;;;;;;;;;;1.34;100.00;92563.53;1042233;56;20193;-84
2021/03/12 02:14:36;;;;;;;;;;;;;;;1.28;100.00;92551.84;1045053;57;20161;-84
2021/03/12 02:15:46;;;;;;;;;;;;;;;1.36;99.78;92550.75;1045142;57;20774;-81
2021/03/12 02:16:51;;;;;;;;;;;;;;;1.33;99.39;92538.34;1045278;56;20200;-83
2021/03/12 02:18:00;;;;;;;;;;;;;;;1.34;100.00;92549.63;1046824;56;20196;-83
2021/03/12 02:19:11;;;;;;;;;;;;;;;1.31;100.00;92550.34;1047585;56;20172;-82
2021/03/12 02:20:32;;;;;;;;;;;;;;;1.26;100.00;92559.34;1046272;56;20351;-82
2021/03/12 02:21:46;;;;;;;;;;;;;;;1.27;100.00;92558.22;1045408;56;20181;-84
2021/03/12 02:22:50;;;;;;;;;;;;;;;1.28;100.00;92559.75;1047451;56;20266;-82
2021/03/12 02:23:50;;;;;;;;;;;;;;;1.31;100.00;92548.47;1045361;57;20296;-83
2021/03/12 02:25:17;;;;;;;;;;;;;;;1.34;100.00;92563.53;1043664;57;20227;-83
2021/03/12 02:26:27;;;;;;;;;;;;;;;1.37;100.00;92560.16;1042438;57;20709;-83
2021/03/12 02:27:28;;;;;;;;;;;;;;;1.43;99.51;92568.44;1044279;56;20619;-83
2021/03/12 02:28:28;;;;;;;;;;;;;;;1.37;100.00;92560.16;1046897;56;20220;-82
2021/03/12 02:29:29;;;;;;;;;;;;;;;1.47;100.00;92562.06;1048308;56;20208;-84
2021/03/12 02:30:30;;;;;;;;;;;;;;;1.45;100.00;92556.44;1048151;56;20215;-83
2021/03/12 02:31:32;;;;;;;;;;;;;;;1.40;100.00;92564.66;1043755;57;20236;-83
2021/03/12 02:32:37;;;;;;;;;;;;;;;1.46;100.00;92555.31;1044046;56;20184;-83
2021/03/12 02:33:38;;;;;;;;;;;;;;;1.46;100.00;92557.19;1048873;56;20188;-82
2021/03/12 02:34:39;;;;;;;;;;;;;;;1.56;100.00;92561.72;1049097;56;20196;-83
2021/03/12 02:35:40;;;;;;;;;;;;;;;1.59;99.35;92563.63;1047904;56;20581;-83
2021/03/12 02:36:47;;;;;;;;;;;;;;;1.66;99.34;92573.41;1047539;56;20712;-83
2021/03/12 02:37:49;;;;;;;;;;;;;;;1.51;98.23;92564.72;1049710;56;20200;-83
2021/03/12 02:38:50;;;;;;;;;;;;;;;1.46;97.71;92568.47;1047521;56;20164;-82
2021/03/12 02:39:52;;;;;;;;;;;;;;;1.48;99.77;92571.47;1047642;56;20195;-84
2021/03/12 02:40:54;;;;;;;;;;;;;;;1.50;100.00;92571.13;1045333;57;20244;-83
2021/03/12 02:41:55;;;;;;;;;;;;;;;1.41;99.65;92566.19;1045210;56;20189;-85
2021/03/12 02:42:56;;;;;;;;;;;;;;;1.40;99.44;92569.19;1048056;56;20169;-84
2021/03/12 02:43:57;;;;;;;;;;;;;;;1.31;100.00;92577.44;1048474;56;20148;-84
2021/03/12 02:45:00;;;;;;;;;;;;;;;1.30;100.00;92573.28;1049522;56;20117;-83
2021/03/12 02:46:00;;;;;;;;;;;;;;;1.35;100.00;92572.94;1051205;56;20194;-82
2021/03/12 02:47:02;;;;;;;;;;;;;;;1.32;100.00;92578.94;1047720;56;20168;-85
2021/03/12 02:48:03;;;;;;;;;;;;;;;1.33;99.80;92577.81;1047767;56;20160;-84
2021/03/12 02:49:04;;;;;;;;;;;;;;;1.28;99.38;92577.44;1048958;56;20164;-83
2021/03/12 02:50:06;;;;;;;;;;;;;;;1.19;100.00;92575.88;1046287;57;20673;-85
2021/03/12 02:51:09;;;;;;;;;;;;;;;1.27;100.00;92568.75;1044701;57;20110;-85
2021/03/12 02:52:10;;;;;;;;;;;;;;;1.19;100.00;92575.13;1048116;56;20109;-84
2021/03/12 02:53:11;;;;;;;;;;;;;;;1.15;100.00;92579.63;1047120;57;20106;-84
2021/03/12 02:54:12;;;;;;;;;;;;;;;1.15;100.00;92579.63;1047191;57;20161;-84
2021/03/12 02:55:13;;;;;;;;;;;;;;;1.08;100.00;92580.34;1043746;57;20145;-85
2021/03/12 02:56:13;;;;;;;;;;;;;;;1.11;100.00;92584.13;1046174;56;20824;-84
2021/03/12 02:57:17;;;;;;;;;;;;;;;1.09;100.00;92581.09;1045758;57;20184;-84
2021/03/12 02:58:17;;;;;;;;;;;;;;;1.12;100.00;92577.72;1046956;56;20188;-85
2021/03/12 02:59:18;;;;;;;;;;;;;;;1.07;100.00;92575.44;1049004;56;20113;-84
2021/03/12 03:00:20;;;;;;;;;;;;;;;1.12;100.00;92581.09;1049255;56;20218;-84
2021/03/12 03:01:21;;;;;;;;;;;;;;;1.12;100.00;92580.34;1049294;56;20169;-84
2021/03/12 03:02:22;;;;;;;;;;;;;;;1.09;100.00;92591.63;1046995;56;20153;-84
2021/03/12 03:03:23;;;;;;;;;;;;;;;1.14;100.00;92592.03;1046840;56;20113;-84
2021/03/12 03:04:23;;;;;;;;;;;;;;;1.02;100.00;92597.59;1049319;56;20173;-84
2021/03/12 03:05:24;;;;;;;;;;;;;;;0.91;100.00;92597.53;1049252;56;20141;-84
2021/03/12 03:06:25;;;;;;;;;;;;;;;0.76;100.00;92595.94;1045279;57;20165;-83
2021/03/12 03:07:26;;;;;;;;;;;;;;;0.84;100.00;92602.00;1048250;56;21089;-85
2021/03/12 03:08:27;;;;;;;;;;;;;;;0.76;100.00;92611.72;1050618;56;20117;-84
2021/03/12 03:09:28;;;;;;;;;;;;;;;0.71;100.00;92615.47;1050599;56;20109;-85
2021/03/12 03:10:28;;;;;;;;;;;;;;;0.59;100.00;92622.87;1046465;57;20784;-85
2021/03/12 03:11:29;;;;;;;;;;;;;;;0.63;100.00;92624.41;1048841;56;20136;-85
2021/03/12 03:12:29;;;;;;;;;;;;;;;0.56;100.00;92592.78;1048292;57;20148;-85
2021/03/12 03:14:36;;;;;;;;;;;;;;;0.55;100.00;92611.56;1431780;39;20464;31
2021/03/12 03:15:49;;;;;;;;;;;;;;;0.50;100.00;92604.78;1427436;39;20224;31
2021/03/12 03:18:07;;;;;;;;;;;;;;;0.48;100.00;92602.53;1425959;39;20561;31
2021/03/12 03:19:21;;;;;;;;;;;;;;;0.56;100.00;92607.81;1428941;39;20322;31
2021/03/12 03:20:24;;;;;;;;;;;;;;;0.52;100.00;92618.31;1424580;39;20297;31
2021/03/12 03:22:31;;;;;;;;;;;;;;;0.52;100.00;92610.41;1437146;39;21000;31
2021/03/12 03:23:39;;;;;;;;;;;;;;;0.54;100.00;92610.06;1416395;39;20312;31
2021/03/12 03:24:53;;;;;;;;;;;;;;;0.57;100.00;92609.31;1385036;39;20211;31
2021/03/12 03:25:55;;;;;;;;;;;;;;;0.56;100.00;92613.84;1426749;39;20472;31
2021/03/12 03:27:00;;;;;;;;;;;;;;;0.55;100.00;92608.94;1395088;39;20211;31
2021/03/12 03:28:04;;;;;;;;;;;;;;;0.63;100.00;92616.53;1422390;39;20250;31
2021/03/12 03:29:08;;;;;;;;;;;;;;;0.61;100.00;92618.00;1369883;39;20296;31
2021/03/12 03:31:40;;;;;;;;;;;;;;;0.58;100.00;92629.25;1447482;39;22362;31
2021/03/12 03:32:44;;;;;;;;;;;;;;;0.56;100.00;92632.25;1435131;39;20428;31
2021/03/12 03:33:57;;;;;;;;;;;;;;;0.54;100.00;92626.59;1368129;39;21196;31
2021/03/12 03:35:03;;;;;;;;;;;;;;;0.60;99.59;92619.88;1427308;39;20277;31
2021/03/12 03:36:08;;;;;;;;;;;;;;;0.61;98.41;92620.63;1354494;39;21289;31
2021/03/12 03:38:29;;;;;;;;;;;;;;;0.56;99.12;92619.09;1427819;39;20279;31
2021/03/12 03:39:34;;;;;;;;;;;;;;;0.50;100.00;92621.31;1419631;39;20179;31
2021/03/12 03:40:38;;;;;;;;;;;;;;;0.52;98.56;92612.28;1434063;39;20798;31
2021/03/12 03:41:45;;;;;;;;;;;;;;;0.41;99.17;92605.09;1409949;39;20186;31
2021/03/12 03:47:12;;;;;;;;;;;;;;;0.37;98.65;92609.56;1291783;39;21144;31
2021/03/12 03:48:27;;;;;;;;;;;;;;;0.39;97.50;92617.81;1024683;39;20706;31
2021/03/12 03:49:31;;;;;;;;;;;;;;;0.40;95.95;92627.25;1113936;39;20578;31
2021/03/12 03:50:37;;;;;;;;;;;;;;;0.35;97.36;92603.16;1140012;39;20349;31
2021/03/12 03:51:39;;;;;;;;;;;;;;;0.33;97.48;92610.66;1053761;49;21041;-88
2021/03/12 03:52:43;;;;;;;;;;;;;;;0.27;98.67;92617.38;1421059;39;20239;31
2021/03/12 03:53:58;;;;;;;;;;;;;;;0.25;97.89;92601.94;1151625;39;20167;-84
2021/03/12 03:54:59;;;;;;;;;;;;;;;0.27;97.96;92601.59;1054471;48;20191;-85
2021/03/12 03:56:12;;;;;;;;;;;;;;;0.26;97.83;92590.31;1160263;39;20318;-86
2021/03/12 03:57:14;;;;;;;;;;;;;;;0.13;99.96;92591.69;1053263;48;20166;-86
2021/03/12 03:58:15;;;;;;;;;;;;;;;0.15;99.17;92594.75;1051443;56;21161;-84
2021/03/12 03:59:16;;;;;;;;;;;;;;;0.19;99.57;92600.78;1047593;56;20193;-86
2021/03/12 04:00:17;;;;;;;;;;;;;;;0.15;99.80;92613.13;1046002;56;20683;-87
2021/03/12 04:01:17;;;;;;;;;;;;;;;0.17;98.89;92605.63;1049139;56;20821;-86
2021/03/12 04:02:19;;;;;;;;;;;;;;;0.18;99.00;92610.53;1049639;56;20165;-84
2021/03/12 04:03:20;;;;;;;;;;;;;;;0.16;99.89;92599.63;1049175;56;20124;-86
2021/03/12 04:04:21;;;;;;;;;;;;;;;0.18;99.49;92596.66;1049025;56;20187;-86
2021/03/12 04:05:21;;;;;;;;;;;;;;;0.19;99.55;92603.41;1048069;56;20668;-86
2021/03/12 04:06:22;;;;;;;;;;;;;;;0.23;98.64;92607.56;1048802;56;20101;-87
2021/03/12 04:07:22;;;;;;;;;;;;;;;0.17;98.93;92598.50;1050314;56;20272;-86
2021/03/12 04:08:23;;;;;;;;;;;;;;;0.18;99.01;92604.53;1048715;56;20218;-86
2021/03/12 04:09:24;;;;;;;;;;;;;;;0.17;100.00;92608.25;1045978;56;20109;-85
2021/03/12 04:10:24;;;;;;;;;;;;;;;0.22;100.00;92610.56;1047017;57;20125;-86
2021/03/12 04:11:26;;;;;;;;;;;;;;;0.16;99.68;92609.38;1048292;57;20161;-85
2021/03/12 04:12:27;;;;;;;;;;;;;;;0.16;99.79;92610.13;1053374;56;20172;-85
2021/03/12 04:13:28;;;;;;;;;;;;;;;0.12;99.15;92605.97;1052635;56;20147;-86
2021/03/12 04:14:29;;;;;;;;;;;;;;;0.19;98.66;92600.78;1046263;56;20151;-87
2021/03/12 04:15:30;;;;;;;;;;;;;;;0.20;98.03;92604.91;1049980;56;20101;-86
2021/03/12 04:16:31;;;;;;;;;;;;;;;0.16;98.77;92591.00;1048333;56;20157;-86
2021/03/12 04:17:32;;;;;;;;;;;;;;;0.18;98.98;92613.16;1053105;56;20196;-86
2021/03/12 04:18:33;;;;;;;;;;;;;;;0.18;98.12;92610.53;1050943;56;20744;-85
2021/03/12 04:19:34;;;;;;;;;;;;;;;0.29;96.29;92617.75;1049856;56;20301;-84
2021/03/12 04:20:35;;;;;;;;;;;;;;;0.17;97.37;92619.53;1051266;56;20183;-86
2021/03/12 04:21:36;;;;;;;;;;;;;;;0.18;98.02;92612.41;1052161;56;20240;-84
2021/03/12 04:22:37;;;;;;;;;;;;;;;0.19;97.26;92619.19;1050889;56;20647;-87
2021/03/12 04:23:38;;;;;;;;;;;;;;;0.12;97.82;92609.34;1050684;56;20184;-86
2021/03/12 04:24:39;;;;;;;;;;;;;;;0.16;98.55;92614.63;1051126;56;20135;-85
2021/03/12 04:25:41;;;;;;;;;;;;;;;0.13;98.33;92616.13;1051126;56;20139;-83
2021/03/12 04:26:41;;;;;;;;;;;;;;;0.09;98.31;92611.94;1053245;56;20642;-85
2021/03/12 04:27:42;;;;;;;;;;;;;;;0.07;98.10;92603.66;1053069;56;20664;-85
2021/03/12 04:28:43;;;;;;;;;;;;;;;-0.01;98.61;92608.84;1050748;56;20677;-86
2021/03/12 04:29:44;;;;;;;;;;;;;;;0.12;97.26;92608.59;1050907;56;20145;-84
2021/03/12 04:30:44;;;;;;;;;;;;;;;0.03;98.19;92605.50;1049987;56;20245;-85
2021/03/12 04:31:45;;;;;;;;;;;;;;;0.05;98.18;92613.81;1050959;56;20194;-85
2021/03/12 04:32:46;;;;;;;;;;;;;;;0.06;97.68;92605.53;1048698;56;20200;-86
2021/03/12 04:33:46;;;;;;;;;;;;;;;0.11;96.29;92609.72;1048976;56;20105;-85
2021/03/12 04:34:47;;;;;;;;;;;;;;;0.06;97.86;92612.69;1049771;56;20223;-84
2021/03/12 04:35:47;;;;;;;;;;;;;;;0.05;98.55;92593.53;1050923;56;20299;-86
2021/03/12 04:36:48;;;;;;;;;;;;;;;0.03;97.75;92618.66;1048740;56;20765;-86
2021/03/12 04:37:48;;;;;;;;;;;;;;;0.02;96.68;92609.25;1050738;56;20180;-85
2021/03/12 04:38:49;;;;;;;;;;;;;;;0.05;96.78;92614.56;1050494;56;20555;-86
2021/03/12 04:39:51;;;;;;;;;;;;;;;0.07;95.71;92607.06;1049503;56;20180;-84
2021/03/12 04:40:51;;;;;;;;;;;;;;;0.11;94.66;92622.84;1051989;56;20726;-85
2021/03/12 04:41:52;;;;;;;;;;;;;;;0.14;93.55;92611.62;1051735;56;20156;-86
2021/03/12 04:42:52;;;;;;;;;;;;;;;0.07;96.09;92603.66;1050424;56;20684;-86
2021/03/12 04:43:54;;;;;;;;;;;;;;;0.06;96.33;92610.06;1048999;56;20290;-89
2021/03/12 04:44:57;;;;;;;;;;;;;;;-0.04;97.63;92611.47;1048677;56;20656;-85
2021/03/12 04:45:59;;;;;;;;;;;;;;;0.01;95.88;92632.16;1051567;56;20168;-87
2021/03/12 04:47:00;;;;;;;;;;;;;;;-0.07;97.60;92620.06;1045412;56;20102;-87
2021/03/12 04:48:00;;;;;;;;;;;;;;;-0.02;96.48;92617.84;1049408;56;20203;-86
2021/03/12 04:49:01;;;;;;;;;;;;;;;-0.06;97.00;92638.06;1052440;56;20198;-87
2021/03/12 04:50:06;;;;;;;;;;;;;;;0.08;94.60;92626.19;1047191;56;20645;-86
2021/03/12 04:51:08;;;;;;;;;;;;;;;-0.04;96.34;92638.50;1048377;56;20125;-84
2021/03/12 04:53:11;;;;;;;;;;;;;;;-0.04;96.17;92630.59;1057241;48;21805;-87
2021/03/12 04:54:14;;;;;;;;;;;;;;;-0.16;97.44;92628.22;1052781;56;21244;-85
2021/03/12 04:55:14;;;;;;;;;;;;;;;-0.21;97.73;92636.44;1050260;56;20242;-86
2021/03/12 04:56:30;;;;;;;;;;;;;;;-0.15;98.13;92634.22;1269464;39;20204;-87
2021/03/12 04:57:38;;;;;;;;;;;;;;;-0.16;97.46;92643.22;1223236;39;20983;31
2021/03/12 04:58:39;;;;;;;;;;;;;;;-0.11;97.06;92637.66;1062054;48;20167;-87
2021/03/12 04:59:39;;;;;;;;;;;;;;;-0.02;96.61;92652.00;1054884;56;20724;-87
2021/03/12 05:00:39;;;;;;;;;;;;;;;-0.17;96.98;92647.72;1053000;56;20180;-85
2021/03/12 05:01:42;;;;;;;;;;;;;;;-0.15;98.02;92650.75;1050192;56;20297;-85
2021/03/12 05:03:46;;;;;;;;;;;;;;;-0.18;98.09;92656.69;1064764;48;20155;-86
2021/03/12 05:04:48;;;;;;;;;;;;;;;-0.14;96.74;92646.25;1052829;56;20252;-87
2021/03/12 05:05:50;;;;;;;;;;;;;;;-0.11;95.15;92654.16;1050831;56;20188;-86
2021/03/12 05:06:50;;;;;;;;;;;;;;;-0.17;96.25;92655.63;1049716;56;20180;-87
2021/03/12 05:07:52;;;;;;;;;;;;;;;-0.24;97.49;92645.03;1051803;56;20215;-86
2021/03/12 05:08:54;;;;;;;;;;;;;;;-0.24;99.23;92645.03;1054053;56;20275;-86
2021/03/12 05:09:54;;;;;;;;;;;;;;;-0.18;98.64;92650.69;1054113;56;20148;-86
2021/03/12 05:11:01;;;;;;;;;;;;;;;-0.31;98.43;92653.59;1052427;56;20113;-85
2021/03/12 05:12:01;;;;;;;;;;;;;;;-0.27;99.25;92649.09;1052082;56;20754;-84
2021/03/12 05:13:04;;;;;;;;;;;;;;;-0.35;99.29;92657.25;1050311;56;20208;-83
2021/03/12 05:14:06;;;;;;;;;;;;;;;-0.38;99.74;92653.50;1051181;56;20179;-82
2021/03/12 05:15:07;;;;;;;;;;;;;;;-0.39;100.00;92659.88;1051142;56;20192;-83
2021/03/12 05:16:07;;;;;;;;;;;;;;;-0.30;100.00;92660.34;1053123;56;20250;-83
2021/03/12 05:17:08;;;;;;;;;;;;;;;-0.33;98.77;92661.06;1050159;56;21103;-81
2021/03/12 05:18:08;;;;;;;;;;;;;;;-0.36;99.56;92661.00;1048028;57;20223;-84
2021/03/12 05:19:09;;;;;;;;;;;;;;;-0.43;99.74;92663.56;1050185;56;20186;-83
2021/03/12 05:20:10;;;;;;;;;;;;;;;-0.33;99.09;92662.94;1050204;56;20724;-82
2021/03/12 05:21:11;;;;;;;;;;;;;;;-0.30;97.74;92662.97;1052471;56;20109;-83
2021/03/12 05:22:12;;;;;;;;;;;;;;;-0.29;98.35;92663.72;1049419;56;20164;-83
2021/03/12 05:23:12;;;;;;;;;;;;;;;-0.28;99.35;92678.34;1046876;57;20181;-84
2021/03/12 05:24:12;;;;;;;;;;;;;;;-0.37;99.66;92664.75;1050885;56;20108;-85
2021/03/12 05:25:13;;;;;;;;;;;;;;;-0.42;100.00;92673.69;1050788;56;20244;-84
2021/03/12 05:26:13;;;;;;;;;;;;;;;-0.43;100.00;92674.81;1051514;56;20784;-82
2021/03/12 05:27:14;;;;;;;;;;;;;;;-0.38;100.00;92671.88;1050087;56;20140;-82
2021/03/12 05:28:14;;;;;;;;;;;;;;;-0.28;99.82;92670.47;1052178;56;20188;-84
2021/03/12 05:29:15;;;;;;;;;;;;;;;-0.14;99.19;92667.25;1047718;57;20304;-82
2021/03/12 05:30:15;;;;;;;;;;;;;;;-0.17;98.78;92674.00;1047960;57;20767;-83
2021/03/12 05:31:15;;;;;;;;;;;;;;;-0.15;99.97;92671.75;1049953;56;20195;-85
2021/03/12 05:32:17;;;;;;;;;;;;;;;-0.24;100.00;92679.16;1052054;56;20215;-84
2021/03/12 05:33:17;;;;;;;;;;;;;;;-0.16;99.34;92677.37;1054487;56;20151;-83
2021/03/12 05:34:17;;;;;;;;;;;;;;;-0.09;99.29;92669.56;1054274;56;20729;-83
2021/03/12 05:35:18;;;;;;;;;;;;;;;-0.09;99.38;92677.44;1050165;56;20189;-83
2021/03/12 05:36:19;;;;;;;;;;;;;;;-0.09;99.30;92674.81;1051095;56;20671;-85
2021/03/12 05:37:19;;;;;;;;;;;;;;;-0.12;100.00;92676.28;1052188;56;20196;-87
2021/03/12 05:38:19;;;;;;;;;;;;;;;-0.02;99.46;92680.16;1052174;56;20160;-85
2021/03/12 05:39:20;;;;;;;;;;;;;;;0.01;99.24;92686.56;1050296;56;20215;-87
2021/03/12 05:40:20;;;;;;;;;;;;;;;-0.01;99.95;92681.66;1052214;56;20156;-86
2021/03/12 05:41:21;;;;;;;;;;;;;;;0.04;99.70;92686.59;1052099;56;20191;-85
2021/03/12 05:42:21;;;;;;;;;;;;;;;0.08;99.79;92690.00;1052016;56;20595;-88
2021/03/12 05:43:22;;;;;;;;;;;;;;;0.03;99.38;92681.69;1054457;56;20213;-87
2021/03/12 05:44:22;;;;;;;;;;;;;;;0.11;99.22;92694.56;1052325;56;20144;-85
2021/03/12 05:45:23;;;;;;;;;;;;;;;0.03;99.48;92694.84;1050229;56;20188;-86
2021/03/12 05:46:23;;;;;;;;;;;;;;;-0.04;99.94;92690.28;1050299;56;20578;-85
2021/03/12 05:47:24;;;;;;;;;;;;;;;-0.08;100.00;92690.22;1048155;57;20165;-86
2021/03/12 05:48:24;;;;;;;;;;;;;;;-0.08;100.00;92694.72;1050240;56;20689;-85
2021/03/12 05:49:24;;;;;;;;;;;;;;;0.12;100.00;92695.31;1050195;56;20160;-85
2021/03/12 05:50:25;;;;;;;;;;;;;;;0.14;99.68;92691.22;1049514;56;20165;-87